Аэропорт: Ленкорань. Ленкорань

ICAO: UBBL

METAR:
2018/11/19 10:00
UBBL 191000Z VRB02KT 9000 -RA OVC034 12/10 Q1026 R33/CLRD// NOSIG RMK MT OP
METAR:
2018/11/19 06:00
TAF UBBL 190513Z 1906/2006 34010KT 9999 BKN025 TX12/1911Z TN04/2002Z 
      TEMPO 1906/1914 04008KT 6000 -RA BKN008 OVC080 
      TEMPO 1914/2004 3000 -RA BR BKN005 OVC080